createdAt,value
2022-12-16T00:01:33.613Z,25.38
2022-12-16T00:03:38.233Z,25.37
2022-12-16T00:05:44.576Z,25.38
2022-12-16T00:07:48.998Z,25.37
2022-12-16T00:09:53.302Z,25.37
2022-12-16T00:11:59.094Z,25.39
2022-12-16T00:14:03.363Z,25.38
2022-12-16T00:16:08.728Z,25.38
2022-12-16T00:18:13.312Z,25.37
2022-12-16T00:20:17.658Z,25.37
2022-12-16T00:22:21.946Z,25.35
2022-12-16T00:24:26.237Z,25.33
2022-12-16T00:26:30.510Z,25.34
2022-12-16T00:28:34.807Z,25.33
2022-12-16T00:30:39.223Z,25.31
2022-12-16T00:32:43.530Z,25.32
2022-12-16T00:34:47.855Z,25.33
2022-12-16T00:36:53.035Z,25.31
2022-12-16T00:38:57.889Z,25.28
2022-12-16T00:41:02.190Z,25.26
2022-12-16T00:43:06.480Z,25.27
2022-12-16T00:45:10.913Z,25.25
2022-12-16T00:47:15.204Z,25.28
2022-12-16T00:49:19.506Z,25.3
2022-12-16T00:51:23.804Z,25.27
2022-12-16T00:53:28.107Z,25.29
2022-12-16T00:55:33.712Z,25.28
2022-12-16T00:57:37.973Z,25.27
2022-12-16T00:59:42.228Z,25.26
2022-12-16T01:01:46.714Z,25.21
2022-12-16T01:03:51.765Z,25.19
2022-12-16T01:05:57.769Z,25.19
2022-12-16T01:08:02.039Z,25.18
2022-12-16T01:10:06.338Z,25.19
2022-12-16T01:12:11.930Z,25.19
2022-12-16T01:14:16.233Z,25.19
2022-12-16T01:16:20.610Z,25.16
2022-12-16T01:18:25.158Z,25.18
2022-12-16T01:20:29.423Z,25.18
2022-12-16T01:22:33.716Z,25.18
2022-12-16T01:24:38.005Z,25.17
2022-12-16T01:26:42.285Z,25.16
2022-12-16T01:28:46.579Z,25.14
2022-12-16T01:30:50.901Z,25.12
2022-12-16T01:32:55.216Z,25.1
2022-12-16T01:34:59.525Z,25.08
2022-12-16T01:37:03.816Z,25.08
2022-12-16T01:39:08.085Z,25.1
2022-12-16T01:41:12.812Z,25.13
2022-12-16T01:43:17.131Z,25.15
2022-12-16T01:45:21.445Z,25.14
2022-12-16T01:47:25.811Z,25.14
2022-12-16T01:49:30.135Z,25.15
2022-12-16T01:51:34.413Z,25.14
2022-12-16T01:53:38.685Z,25.12
2022-12-16T01:55:43.018Z,25.09
2022-12-16T01:57:47.300Z,25.09
2022-12-16T01:59:51.622Z,25.11
2022-12-16T02:01:58.143Z,25.11
2022-12-16T02:04:03.314Z,25.09
2022-12-16T02:06:07.621Z,25.07
2022-12-16T02:08:12.799Z,25.07
2022-12-16T02:10:17.060Z,25.07
2022-12-16T02:12:21.379Z,25.06
2022-12-16T02:14:25.689Z,25.05
2022-12-16T02:16:30.058Z,25.03
2022-12-16T02:18:34.558Z,24.98
2022-12-16T02:20:38.849Z,24.96
2022-12-16T02:22:43.152Z,24.92
2022-12-16T02:24:47.433Z,24.89
2022-12-16T02:26:51.791Z,24.87
2022-12-16T02:28:56.362Z,24.87
2022-12-16T02:31:00.773Z,24.84
2022-12-16T02:33:05.496Z,24.83
2022-12-16T02:35:10.920Z,24.81
2022-12-16T02:37:15.216Z,24.8
2022-12-16T02:39:19.512Z,24.78
2022-12-16T02:41:23.821Z,24.78
2022-12-16T02:43:28.134Z,24.79
2022-12-16T02:45:33.049Z,24.78
2022-12-16T02:47:37.527Z,24.76
2022-12-16T02:49:41.842Z,24.74
2022-12-16T02:51:46.110Z,24.74
2022-12-16T02:53:50.419Z,24.73
2022-12-16T02:55:54.740Z,24.72
2022-12-16T02:57:59.040Z,24.7
2022-12-16T03:00:03.345Z,24.69
2022-12-16T03:02:07.808Z,24.68
2022-12-16T03:04:12.834Z,24.69
2022-12-16T03:06:17.153Z,24.69
2022-12-16T03:08:21.462Z,24.7
2022-12-16T03:10:25.792Z,24.71
2022-12-16T03:12:30.064Z,24.69
2022-12-16T03:14:34.343Z,24.68
2022-12-16T03:16:38.768Z,24.68
2022-12-16T03:18:43.335Z,24.67
2022-12-16T03:20:47.679Z,24.63
2022-12-16T03:22:51.988Z,24.62
2022-12-16T03:24:56.337Z,24.58
2022-12-16T03:27:00.617Z,24.57
2022-12-16T03:29:04.899Z,24.55
2022-12-16T03:31:09.322Z,24.52
2022-12-16T03:33:13.847Z,24.51
2022-12-16T03:35:18.156Z,24.51
2022-12-16T03:37:22.505Z,24.49
2022-12-16T03:39:26.820Z,24.5
2022-12-16T03:41:31.123Z,24.5
2022-12-16T03:43:35.669Z,24.5
2022-12-16T03:45:40.192Z,24.5
2022-12-16T03:47:44.513Z,24.49
2022-12-16T03:49:48.785Z,24.48
2022-12-16T03:51:53.070Z,24.48
2022-12-16T03:54:51.582Z,24.43
2022-12-16T03:56:55.872Z,24.45
2022-12-16T03:59:00.189Z,24.44
2022-12-16T04:01:04.495Z,24.43
2022-12-16T04:03:08.923Z,24.42
2022-12-16T04:05:14.084Z,24.43
2022-12-16T04:07:18.439Z,24.42
2022-12-16T04:09:22.786Z,24.42
2022-12-16T04:11:27.108Z,24.42
2022-12-16T04:13:31.812Z,24.39
2022-12-16T04:15:37.768Z,24.4
2022-12-16T04:17:42.256Z,24.4
2022-12-16T04:19:46.599Z,24.38
2022-12-16T04:21:51.034Z,24.38
2022-12-16T04:23:57.977Z,24.38
2022-12-16T04:26:02.306Z,24.36
2022-12-16T04:28:06.661Z,24.36
2022-12-16T04:30:10.959Z,24.36
2022-12-16T04:32:15.244Z,24.37
2022-12-16T04:34:19.554Z,24.36
2022-12-16T04:36:23.873Z,24.36
2022-12-16T04:38:28.146Z,24.33
2022-12-16T04:40:32.529Z,24.32
2022-12-16T04:42:39.694Z,24.3
2022-12-16T04:44:44.126Z,24.3
2022-12-16T04:46:48.680Z,24.3
2022-12-16T04:48:53.271Z,24.3
2022-12-16T04:50:57.591Z,24.3
2022-12-16T04:53:01.901Z,24.31
2022-12-16T04:55:06.175Z,24.3
2022-12-16T04:57:10.489Z,24.28
2022-12-16T04:59:14.781Z,24.28
2022-12-16T05:01:19.251Z,24.26
2022-12-16T05:03:24.053Z,24.26
2022-12-16T05:05:28.577Z,24.25
2022-12-16T05:07:37.866Z,24.25
2022-12-16T05:09:42.465Z,24.25
2022-12-16T05:11:46.749Z,24.24
2022-12-16T05:13:51.088Z,24.24
2022-12-16T05:15:55.418Z,24.24
2022-12-16T05:17:59.935Z,24.22
2022-12-16T05:20:04.240Z,24.23
2022-12-16T05:22:08.506Z,24.19
2022-12-16T05:24:12.775Z,24.21
2022-12-16T05:26:17.116Z,24.22
2022-12-16T05:28:21.394Z,24.22
2022-12-16T05:30:29.167Z,24.23
2022-12-16T05:32:37.326Z,24.24
2022-12-16T05:34:41.604Z,24.22
2022-12-16T05:36:45.925Z,24.22
2022-12-16T05:38:50.233Z,24.21
2022-12-16T05:40:54.541Z,24.21
2022-12-16T05:42:59.481Z,24.21
2022-12-16T05:45:03.771Z,24.19
2022-12-16T05:47:08.136Z,24.2
2022-12-16T05:49:12.626Z,24.22
2022-12-16T05:51:16.942Z,24.21
2022-12-16T05:53:21.265Z,24.22
2022-12-16T05:55:29.097Z,24.22
2022-12-16T05:57:37.827Z,24.22
2022-12-16T05:59:42.109Z,24.23
2022-12-16T06:01:46.518Z,24.24
2022-12-16T06:03:51.507Z,24.24
2022-12-16T06:05:55.997Z,24.24
2022-12-16T06:08:00.269Z,24.26
2022-12-16T06:10:04.579Z,24.25
2022-12-16T06:12:08.878Z,24.23
2022-12-16T06:14:13.181Z,24.25
2022-12-16T06:16:17.547Z,24.24
2022-12-16T06:18:21.947Z,24.24
2022-12-16T06:20:26.206Z,24.24
2022-12-16T06:22:30.494Z,24.24
2022-12-16T06:24:34.778Z,24.25
2022-12-16T06:26:39.085Z,24.24
2022-12-16T06:28:45.983Z,24.25
2022-12-16T06:30:50.430Z,24.23
2022-12-16T06:32:54.761Z,24.21
2022-12-16T06:34:59.068Z,24.19
2022-12-16T06:37:03.398Z,24.17
2022-12-16T06:39:07.695Z,24.16
2022-12-16T06:41:11.955Z,24.16
2022-12-16T06:43:16.281Z,24.15
2022-12-16T06:45:20.556Z,24.12
2022-12-16T06:47:24.839Z,24.11
2022-12-16T06:49:29.156Z,24.09
2022-12-16T06:51:33.430Z,24.1
2022-12-16T06:53:37.760Z,24.06
2022-12-16T06:55:42.048Z,24.07
2022-12-16T06:57:46.323Z,24.08
2022-12-16T06:59:50.684Z,24.07
2022-12-16T07:01:55.046Z,24.06
2022-12-16T07:03:59.621Z,24.05
2022-12-16T07:06:03.960Z,24.03
2022-12-16T07:08:08.282Z,24.01
2022-12-16T07:10:12.527Z,24
2022-12-16T07:12:16.761Z,24.02
2022-12-16T07:14:21.079Z,24.04
2022-12-16T07:16:25.410Z,24.04
2022-12-16T07:18:29.884Z,24.03
2022-12-16T07:20:34.182Z,24.01
2022-12-16T07:22:38.487Z,24
2022-12-16T07:24:42.769Z,24.01
2022-12-16T07:26:47.109Z,24
2022-12-16T07:28:51.414Z,23.87
2022-12-16T07:30:55.694Z,23.78
2022-12-16T07:33:00.009Z,23.77
2022-12-16T07:35:04.294Z,23.78
2022-12-16T07:37:08.626Z,23.78
2022-12-16T07:39:12.936Z,23.78
2022-12-16T07:41:17.270Z,23.79
2022-12-16T07:43:21.599Z,23.81
2022-12-16T07:45:25.883Z,23.81
2022-12-16T07:47:30.370Z,23.82
2022-12-16T07:49:34.620Z,23.84
2022-12-16T07:51:38.855Z,23.86
2022-12-16T07:53:43.097Z,23.9
2022-12-16T07:55:47.411Z,23.92
2022-12-16T07:57:51.705Z,23.95
2022-12-16T07:59:56.004Z,23.94
2022-12-16T08:02:00.410Z,23.92
2022-12-16T08:04:05.369Z,23.92
2022-12-16T08:06:09.733Z,23.91
2022-12-16T08:08:14.048Z,23.91
2022-12-16T08:10:18.412Z,23.91
2022-12-16T08:12:22.730Z,23.88
2022-12-16T08:14:27.109Z,23.87
2022-12-16T08:16:31.521Z,23.87
2022-12-16T08:18:36.226Z,23.87
2022-12-16T08:20:40.508Z,23.86
2022-12-16T08:22:44.858Z,23.86
2022-12-16T08:24:53.081Z,23.85
2022-12-16T08:26:59.655Z,23.84
2022-12-16T08:29:27.070Z,23.85
2022-12-16T08:31:48.599Z,23.84
2022-12-16T08:33:53.338Z,23.86
2022-12-16T08:35:59.385Z,23.87
2022-12-16T08:38:06.516Z,23.86
2022-12-16T08:40:34.667Z,23.82
2022-12-16T08:42:40.487Z,23.82
2022-12-16T08:44:44.825Z,23.83
2022-12-16T08:46:49.274Z,23.82
2022-12-16T08:48:53.599Z,23.84
2022-12-16T08:50:59.271Z,23.83
2022-12-16T08:53:03.568Z,23.83
2022-12-16T08:55:07.887Z,23.83
2022-12-16T08:57:12.181Z,23.82
2022-12-16T08:59:16.473Z,23.84
2022-12-16T09:01:20.912Z,23.84
2022-12-16T09:03:25.825Z,23.84
2022-12-16T09:05:30.501Z,23.82
2022-12-16T09:07:34.806Z,23.83
2022-12-16T09:09:39.101Z,23.84
2022-12-16T09:11:43.435Z,23.83
2022-12-16T09:13:47.707Z,23.85
2022-12-16T09:15:52.128Z,23.83
2022-12-16T09:17:56.811Z,23.78
2022-12-16T09:20:01.115Z,23.79
2022-12-16T09:22:05.499Z,23.79
2022-12-16T09:24:11.111Z,23.8
2022-12-16T09:26:15.551Z,23.8
2022-12-16T09:28:20.316Z,23.81
2022-12-16T09:30:24.635Z,23.82
2022-12-16T09:32:28.943Z,23.82
2022-12-16T09:34:33.233Z,23.82
2022-12-16T09:36:37.520Z,23.82
2022-12-16T09:38:41.862Z,23.82
2022-12-16T09:40:46.136Z,23.82
2022-12-16T09:42:50.479Z,23.81
2022-12-16T09:44:58.815Z,23.81
2022-12-16T09:47:08.103Z,23.82
2022-12-16T09:49:12.736Z,23.82
2022-12-16T09:51:17.058Z,23.82
2022-12-16T09:53:21.377Z,23.81
2022-12-16T09:55:25.845Z,23.82
2022-12-16T09:57:30.144Z,23.82
2022-12-16T09:59:34.453Z,23.81
2022-12-16T10:01:38.805Z,23.82
2022-12-16T10:03:44.043Z,23.82
2022-12-16T10:05:48.685Z,23.82
2022-12-16T10:07:53.479Z,23.8
2022-12-16T10:09:59.668Z,23.79
2022-12-16T10:12:03.990Z,23.8
2022-12-16T10:14:08.298Z,23.8
2022-12-16T10:16:20.344Z,23.81
2022-12-16T10:18:25.132Z,23.82
2022-12-16T10:20:29.638Z,23.83
2022-12-16T10:22:33.952Z,23.83
2022-12-16T10:24:38.266Z,23.83
2022-12-16T10:26:42.577Z,23.82
2022-12-16T10:28:46.879Z,23.82
2022-12-16T10:30:51.243Z,23.82
2022-12-16T10:32:56.391Z,23.83
2022-12-16T10:35:00.725Z,23.83
2022-12-16T10:37:09.250Z,23.82
2022-12-16T10:39:23.918Z,23.84
2022-12-16T10:41:28.237Z,23.83
2022-12-16T10:43:32.874Z,23.82
2022-12-16T10:45:38.722Z,23.81
2022-12-16T10:47:43.051Z,23.82
2022-12-16T10:49:50.888Z,23.79
2022-12-16T10:52:02.830Z,23.82
2022-12-16T10:54:12.815Z,23.81
2022-12-16T10:56:17.153Z,23.81
2022-12-16T10:58:21.498Z,23.82
2022-12-16T11:00:25.786Z,23.82
2022-12-16T11:02:30.270Z,23.82
2022-12-16T11:04:35.293Z,23.83
2022-12-16T11:06:48.317Z,23.82
2022-12-16T11:08:53.448Z,23.83
2022-12-16T11:11:00.150Z,23.86
2022-12-16T11:13:04.492Z,23.86
2022-12-16T11:17:45.737Z,23.85
2022-12-16T11:19:50.048Z,23.85
2022-12-16T11:21:56.169Z,23.86
2022-12-16T11:24:00.511Z,23.86
2022-12-16T11:26:04.886Z,23.85
2022-12-16T11:28:09.216Z,23.86
2022-12-16T11:30:13.535Z,23.86
2022-12-16T11:32:17.868Z,23.84
2022-12-16T11:34:22.179Z,23.83
2022-12-16T11:36:26.475Z,23.83
2022-12-16T11:38:30.809Z,23.83
2022-12-16T11:40:35.124Z,23.82
2022-12-16T11:42:39.411Z,23.83
2022-12-16T11:44:43.738Z,23.85
2022-12-16T11:46:48.228Z,23.85
2022-12-16T11:48:53.465Z,23.84
2022-12-16T11:50:58.704Z,23.84
2022-12-16T11:53:03.000Z,23.83
2022-12-16T11:55:07.348Z,23.85
2022-12-16T11:57:12.310Z,23.85
2022-12-16T11:59:16.634Z,23.86
2022-12-16T12:01:20.971Z,23.86
2022-12-16T12:03:25.544Z,23.84
2022-12-16T12:05:30.405Z,23.84
2022-12-16T12:07:34.805Z,23.83
2022-12-16T12:09:48.824Z,23.85
2022-12-16T12:11:53.735Z,23.81
2022-12-16T12:13:59.911Z,23.82
2022-12-16T12:16:04.297Z,23.84
2022-12-16T12:18:08.820Z,23.84
2022-12-16T12:20:13.123Z,23.89
2022-12-16T12:22:17.421Z,23.91
2022-12-16T12:24:21.793Z,23.88
2022-12-16T12:26:26.175Z,23.9
2022-12-16T12:28:30.501Z,23.96
2022-12-16T12:30:34.849Z,24
2022-12-16T12:32:39.149Z,24.05
2022-12-16T12:34:43.542Z,24.06
2022-12-16T12:36:47.850Z,24.08
2022-12-16T12:38:52.225Z,24.08
2022-12-16T12:40:58.570Z,24.09
2022-12-16T12:43:02.911Z,24.08
2022-12-16T12:45:07.252Z,24.09
2022-12-16T12:47:12.260Z,24.11
2022-12-16T12:49:16.835Z,24.12
2022-12-16T12:51:21.230Z,24.14
2022-12-16T12:53:25.555Z,24.15
2022-12-16T12:55:29.898Z,24.15
2022-12-16T12:57:34.290Z,24.15
2022-12-16T12:59:38.649Z,24.15
2022-12-16T13:01:43.111Z,24.13
2022-12-16T13:03:48.080Z,24.14
2022-12-16T13:05:53.001Z,24.15
2022-12-16T13:07:57.419Z,24.14
2022-12-16T13:10:01.755Z,24.11
2022-12-16T13:12:06.573Z,24.11
2022-12-16T13:14:11.921Z,24.13
2022-12-16T13:16:16.201Z,24.13
2022-12-16T13:18:20.684Z,24.17
2022-12-16T13:20:25.053Z,24.18
2022-12-16T13:22:29.386Z,24.18
2022-12-16T13:24:33.741Z,24.17
2022-12-16T13:26:38.111Z,24.16
2022-12-16T13:28:42.448Z,24.13
2022-12-16T13:30:47.461Z,24.11
2022-12-16T13:32:51.795Z,24.08
2022-12-16T13:34:56.081Z,24.09
2022-12-16T13:37:00.445Z,24.07
2022-12-16T13:39:04.778Z,24.08
2022-12-16T13:41:09.207Z,24.07
2022-12-16T13:43:13.554Z,24.01
2022-12-16T13:45:35.029Z,24.03
2022-12-16T13:47:39.579Z,24.02
2022-12-16T13:49:43.893Z,24.04
2022-12-16T13:51:48.325Z,24.04
2022-12-16T13:53:52.707Z,24.05
2022-12-16T13:55:57.222Z,24.06
2022-12-16T13:58:01.603Z,24.07
2022-12-16T14:00:06.204Z,24.07
2022-12-16T14:02:10.725Z,24.06
2022-12-16T14:04:15.409Z,24.06
2022-12-16T14:06:19.756Z,24.06
2022-12-16T14:08:24.061Z,24.08
2022-12-16T14:10:28.386Z,24.07
2022-12-16T14:12:32.697Z,24.07
2022-12-16T14:14:36.911Z,24.07
2022-12-16T14:16:41.355Z,24.07
2022-12-16T14:18:45.817Z,24.08
2022-12-16T14:20:50.145Z,24.1
2022-12-16T14:22:54.425Z,24.1
2022-12-16T14:24:58.760Z,24.12
2022-12-16T14:27:03.139Z,24.14
2022-12-16T14:29:07.417Z,24.12
2022-12-16T14:31:11.764Z,24.14
2022-12-16T14:33:16.181Z,24.14
2022-12-16T14:35:20.483Z,24.12
2022-12-16T14:37:24.812Z,24.09
2022-12-16T14:39:29.155Z,24.1
2022-12-16T14:41:33.411Z,24.09
2022-12-16T14:43:37.796Z,24.08
2022-12-16T14:45:42.212Z,24.07
2022-12-16T14:47:46.718Z,24.09
2022-12-16T14:49:50.996Z,24.09
2022-12-16T14:51:55.352Z,24.09
2022-12-16T14:53:59.662Z,24.08
2022-12-16T14:56:04.044Z,24.07
2022-12-16T14:58:08.375Z,24.06
2022-12-16T15:00:12.700Z,24.07
2022-12-16T15:02:17.254Z,24.06
2022-12-16T15:04:22.660Z,24.08
2022-12-16T15:06:28.140Z,24.02
2022-12-16T15:08:32.877Z,24.04
2022-12-16T15:10:38.637Z,24.06
2022-12-16T15:12:42.931Z,24.08
2022-12-16T15:14:47.284Z,24.06
2022-12-16T15:16:51.725Z,24.1
2022-12-16T15:18:59.327Z,24.11
2022-12-16T15:21:03.771Z,24.15
2022-12-16T15:23:08.098Z,24.17
2022-12-16T15:25:12.422Z,24.2
2022-12-16T15:27:16.727Z,24.21
2022-12-16T15:29:21.042Z,24.23
2022-12-16T15:31:25.465Z,24.24
2022-12-16T15:33:30.088Z,24.24
2022-12-16T15:35:35.759Z,24.26
2022-12-16T15:37:40.072Z,24.25
2022-12-16T15:39:44.496Z,24.26
2022-12-16T15:41:48.848Z,24.28
2022-12-16T15:43:57.414Z,24.29
2022-12-16T15:46:01.909Z,24.32
2022-12-16T15:48:06.436Z,24.34
2022-12-16T15:50:10.741Z,24.35
2022-12-16T15:52:15.059Z,24.38
2022-12-16T15:54:19.447Z,24.4
2022-12-16T15:56:24.234Z,24.43
2022-12-16T15:58:28.629Z,24.43
2022-12-16T16:00:32.924Z,24.47
2022-12-16T16:02:37.411Z,24.48
2022-12-16T16:04:42.747Z,24.5
2022-12-16T16:06:47.083Z,24.48
2022-12-16T16:08:51.452Z,24.5
2022-12-16T16:10:55.789Z,24.5
2022-12-16T16:13:00.101Z,24.5
2022-12-16T16:15:04.466Z,24.51
2022-12-16T16:17:08.778Z,24.5
2022-12-16T16:19:13.099Z,24.52
2022-12-16T16:21:17.479Z,24.51
2022-12-16T16:23:21.879Z,24.52
2022-12-16T16:25:26.215Z,24.52
2022-12-16T16:27:30.590Z,24.54
2022-12-16T16:29:34.942Z,24.55
2022-12-16T16:31:39.396Z,24.54
2022-12-16T16:33:43.964Z,24.53
2022-12-16T16:35:48.314Z,24.54
2022-12-16T16:37:52.621Z,24.54
2022-12-16T16:39:56.969Z,24.54
2022-12-16T16:42:01.254Z,24.55
2022-12-16T16:44:05.593Z,24.55
2022-12-16T16:46:09.931Z,24.57
2022-12-16T16:48:14.452Z,24.56
2022-12-16T16:50:19.511Z,24.56
2022-12-16T16:52:23.952Z,24.56
2022-12-16T16:54:28.285Z,24.57
2022-12-16T16:56:32.591Z,24.57
2022-12-16T16:58:36.888Z,24.59
2022-12-16T17:00:41.334Z,24.6
2022-12-16T17:02:46.095Z,24.6
2022-12-16T17:04:51.222Z,24.6
2022-12-16T17:06:56.018Z,24.62
2022-12-16T17:09:00.449Z,24.61
2022-12-16T17:11:04.807Z,24.6
2022-12-16T17:13:09.153Z,24.59
2022-12-16T17:15:13.525Z,24.59
2022-12-16T17:17:17.859Z,24.58
2022-12-16T17:19:22.188Z,24.54
2022-12-16T17:21:26.581Z,24.57
2022-12-16T17:23:31.277Z,24.59
2022-12-16T17:25:36.856Z,24.59
2022-12-16T17:27:41.242Z,24.63
2022-12-16T17:29:45.600Z,24.59
2022-12-16T17:31:50.116Z,24.71
2022-12-16T17:33:54.792Z,24.72
2022-12-16T17:35:59.387Z,24.76
2022-12-16T17:38:03.800Z,24.8
2022-12-16T17:40:08.188Z,24.8
2022-12-16T17:42:12.580Z,24.91
2022-12-16T17:44:16.994Z,24.96
2022-12-16T17:46:21.409Z,24.94
2022-12-16T17:48:26.091Z,25.05
2022-12-16T17:50:30.506Z,25.09
2022-12-16T17:52:34.891Z,25.14
2022-12-16T17:54:39.242Z,25.13
2022-12-16T17:56:43.740Z,25.12
2022-12-16T17:58:48.225Z,25.18
2022-12-16T18:00:52.629Z,25.22
2022-12-16T18:02:57.154Z,25.26
2022-12-16T18:05:02.460Z,25.29
2022-12-16T18:07:06.854Z,25.3
2022-12-16T18:09:11.265Z,25.31
2022-12-16T18:11:15.688Z,25.33
2022-12-16T18:13:20.114Z,25.31
2022-12-16T18:15:24.530Z,25.29
2022-12-16T18:17:28.948Z,25.26
2022-12-16T18:19:33.357Z,25.27
2022-12-16T18:21:37.921Z,25.29
2022-12-16T18:23:42.352Z,25.28
2022-12-16T18:25:46.854Z,25.23
2022-12-16T18:27:51.308Z,25.25
2022-12-16T18:29:55.742Z,25.27
2022-12-16T18:32:00.322Z,25.28
2022-12-16T18:34:04.914Z,25.29
2022-12-16T18:36:09.371Z,25.25
2022-12-16T18:38:16.513Z,25.28
2022-12-16T18:40:21.151Z,25.29
2022-12-16T18:42:25.933Z,25.33
2022-12-16T18:44:30.474Z,25.29
2022-12-16T18:46:34.968Z,25.29
2022-12-16T18:48:39.348Z,25.31
2022-12-16T18:50:43.684Z,25.34
2022-12-16T18:52:48.081Z,25.35
2022-12-16T18:54:52.464Z,25.3
2022-12-16T18:56:56.904Z,25.34
2022-12-16T18:59:01.536Z,25.27
2022-12-16T19:01:06.346Z,25.29
2022-12-16T19:03:11.262Z,25.34
2022-12-16T19:05:15.971Z,25.39
2022-12-16T19:07:20.407Z,25.44
2022-12-16T19:09:24.859Z,25.46
2022-12-16T19:11:29.231Z,25.48
2022-12-16T19:13:33.617Z,25.46
2022-12-16T19:15:41.157Z,25.47
2022-12-16T19:17:45.847Z,25.47
2022-12-16T19:19:50.200Z,25.48
2022-12-16T19:21:56.209Z,25.48
2022-12-16T19:24:01.350Z,25.5
2022-12-16T19:26:05.707Z,25.51
2022-12-16T19:28:10.119Z,25.51
2022-12-16T19:30:14.509Z,25.5
2022-12-16T19:32:19.031Z,25.49
2022-12-16T19:34:23.733Z,25.5
2022-12-16T19:36:28.107Z,25.5
2022-12-16T19:38:32.508Z,25.44
2022-12-16T19:40:36.883Z,25.49
2022-12-16T19:42:41.266Z,25.5
2022-12-16T19:44:45.641Z,25.5
2022-12-16T19:46:50.118Z,25.5
2022-12-16T19:48:58.639Z,25.48
2022-12-16T19:51:03.017Z,25.47
2022-12-16T19:53:07.577Z,25.39
2022-12-16T19:55:17.147Z,25.37
2022-12-16T19:57:21.920Z,25.36
2022-12-16T19:59:26.346Z,25.33
2022-12-16T20:01:30.940Z,25.35
2022-12-16T20:03:35.975Z,25.34
2022-12-16T20:05:40.908Z,25.35
2022-12-16T20:07:45.295Z,25.37
2022-12-16T20:09:49.663Z,25.38
2022-12-16T20:11:58.509Z,25.42
2022-12-16T20:14:03.067Z,25.42
2022-12-16T20:16:07.460Z,25.39
2022-12-16T20:18:12.864Z,25.37
2022-12-16T20:20:17.260Z,25.37
2022-12-16T20:22:21.719Z,25.32
2022-12-16T20:24:26.201Z,25.33
2022-12-16T20:26:30.560Z,25.34
2022-12-16T20:28:35.049Z,25.36
2022-12-16T20:30:39.403Z,25.41
2022-12-16T20:32:43.781Z,25.44
2022-12-16T20:34:48.333Z,25.5
2022-12-16T20:36:52.848Z,25.51
2022-12-16T20:39:00.643Z,25.53
2022-12-16T20:41:05.054Z,25.58
2022-12-16T20:43:09.411Z,25.6
2022-12-16T20:45:13.804Z,25.6
2022-12-16T20:47:18.208Z,25.61
2022-12-16T20:49:22.796Z,25.66
2022-12-16T20:51:27.261Z,25.65
2022-12-16T20:53:31.726Z,25.68
2022-12-16T20:55:36.109Z,25.7
2022-12-16T20:57:40.529Z,25.72
2022-12-16T20:59:44.863Z,25.74
2022-12-16T21:02:14.823Z,25.75
2022-12-16T21:04:35.554Z,25.77
2022-12-16T21:06:40.012Z,25.77
2022-12-16T21:08:44.401Z,25.79
2022-12-16T21:10:48.791Z,25.78
2022-12-16T21:12:54.140Z,25.82
2022-12-16T21:15:09.426Z,25.87
2022-12-16T21:17:14.229Z,25.88
2022-12-16T21:19:18.643Z,25.91
2022-12-16T21:21:23.115Z,25.93
2022-12-16T21:23:27.491Z,25.93
2022-12-16T21:25:31.930Z,25.91
2022-12-16T21:27:36.365Z,25.9
2022-12-16T21:29:40.763Z,25.93
2022-12-16T21:31:45.223Z,25.98
2022-12-16T21:33:49.866Z,26.01
2022-12-16T21:35:57.924Z,26.02
2022-12-16T21:38:02.346Z,26.03
2022-12-16T21:40:06.776Z,26.03
2022-12-16T21:42:12.198Z,26.02
2022-12-16T21:44:16.569Z,26.04
2022-12-16T21:46:21.039Z,26.06
2022-12-16T21:48:25.506Z,26.04
2022-12-16T21:50:29.963Z,26.04
2022-12-16T21:52:34.387Z,26.11
2022-12-16T21:54:38.786Z,26.08
2022-12-16T21:56:43.539Z,26.07
2022-12-16T21:58:48.047Z,26.06
2022-12-16T22:00:53.597Z,26.06
2022-12-16T22:03:04.159Z,26.09
2022-12-16T22:05:08.992Z,26.13
2022-12-16T22:07:13.900Z,26.16
2022-12-16T22:09:18.832Z,26.17
2022-12-16T22:11:23.201Z,26.17
2022-12-16T22:13:27.567Z,26.16
2022-12-16T22:15:31.967Z,26.17
2022-12-16T22:17:36.471Z,26.17
2022-12-16T22:19:41.259Z,26.18
2022-12-16T22:21:45.739Z,26.16
2022-12-16T22:23:50.365Z,26.14
2022-12-16T22:25:58.719Z,26.14
2022-12-16T22:28:03.220Z,26.09
2022-12-16T22:30:07.608Z,26.06
2022-12-16T22:32:13.058Z,26.05
2022-12-16T22:34:17.451Z,26.01
2022-12-16T22:36:22.211Z,25.96
2022-12-16T22:38:26.805Z,25.98
2022-12-16T22:40:31.197Z,25.98
2022-12-16T22:42:35.635Z,26.01
2022-12-16T22:44:40.080Z,25.98
2022-12-16T22:46:44.475Z,25.98
2022-12-16T22:48:49.220Z,25.97
2022-12-16T22:50:56.208Z,25.95
2022-12-16T22:53:00.827Z,25.99
2022-12-16T22:55:05.327Z,25.96
2022-12-16T22:57:09.680Z,25.93
2022-12-16T22:59:14.081Z,25.91
2022-12-16T23:01:18.485Z,25.9
2022-12-16T23:03:23.176Z,25.91
2022-12-16T23:05:28.187Z,25.9
2022-12-16T23:07:32.640Z,25.9
2022-12-16T23:09:37.037Z,25.93
2022-12-16T23:11:41.420Z,25.89
2022-12-16T23:13:45.776Z,25.89
2022-12-16T23:15:50.164Z,25.85
2022-12-16T23:17:58.888Z,25.84
2022-12-16T23:20:03.254Z,25.8
2022-12-16T23:22:07.744Z,25.85
2022-12-16T23:24:13.113Z,25.87
2022-12-16T23:26:17.545Z,25.87
2022-12-16T23:28:21.923Z,25.79
2022-12-16T23:30:26.319Z,25.8
2022-12-16T23:32:31.643Z,25.75
2022-12-16T23:34:40.855Z,25.71
2022-12-16T23:36:49.941Z,25.66
2022-12-16T23:38:58.937Z,25.67
2022-12-16T23:41:03.333Z,25.7
2022-12-16T23:43:07.723Z,25.69
2022-12-16T23:45:13.233Z,25.7
2022-12-16T23:47:17.591Z,25.68
2022-12-16T23:49:21.961Z,25.68
2022-12-16T23:51:26.318Z,25.69
2022-12-16T23:53:30.740Z,25.66
2022-12-16T23:55:35.544Z,25.64
2022-12-16T23:57:39.904Z,25.64
2022-12-16T23:59:44.300Z,25.62
